createdAt,value
2019-06-26T00:01:05.179Z,10.93
2019-06-26T00:03:34.597Z,12.58
2019-06-26T00:06:04.025Z,11.90
2019-06-26T00:11:08.511Z,10.78
2019-06-26T00:13:37.892Z,9.53
2019-06-26T00:16:07.381Z,12.25
2019-06-26T00:18:36.883Z,12.33
2019-06-26T00:21:06.376Z,10.85
2019-06-26T00:23:35.787Z,12.00
2019-06-26T00:26:05.297Z,11.38
2019-06-26T00:28:34.742Z,9.43
2019-06-26T00:31:04.196Z,11.03
2019-06-26T00:33:33.619Z,9.58
2019-06-26T00:36:03.121Z,11.53
2019-06-26T00:41:07.564Z,12.30
2019-06-26T00:43:42.209Z,12.73
2019-06-26T00:46:08.124Z,11.93
2019-06-26T00:48:37.553Z,8.75
2019-06-26T00:51:06.944Z,12.20
2019-06-26T00:53:36.612Z,13.25
2019-06-26T00:58:41.493Z,12.10
2019-06-26T01:01:10.990Z,12.73
2019-06-26T01:03:41.593Z,10.50
2019-06-26T01:06:12.812Z,11.60
2019-06-26T01:08:42.412Z,12.90
2019-06-26T01:11:11.771Z,10.10
2019-06-26T01:16:22.006Z,11.85
2019-06-26T01:18:51.364Z,12.40
2019-06-26T01:21:20.729Z,13.03
2019-06-26T01:23:50.263Z,10.13
2019-06-26T01:26:19.700Z,10.72
2019-06-26T01:28:49.109Z,11.15
2019-06-26T01:31:19.452Z,9.20
2019-06-26T01:33:48.884Z,10.63
2019-06-26T01:38:52.829Z,10.18
2019-06-26T01:41:22.263Z,10.55
2019-06-26T01:43:51.957Z,12.40
2019-06-26T01:46:21.327Z,11.15
2019-06-26T01:48:50.893Z,9.68
2019-06-26T01:51:20.320Z,10.68
2019-06-26T01:56:24.546Z,8.73
2019-06-26T01:58:53.936Z,10.05
2019-06-26T02:01:23.365Z,10.78
2019-06-26T02:03:52.984Z,9.98
2019-06-26T02:06:22.817Z,11.57
2019-06-26T02:08:52.378Z,10.50
2019-06-26T02:13:56.510Z,9.60
2019-06-26T02:16:25.853Z,7.72
2019-06-26T02:18:59.759Z,10.75
2019-06-26T02:21:29.756Z,11.20
2019-06-26T02:23:59.298Z,11.33
2019-06-26T02:26:28.870Z,11.35
2019-06-26T02:31:33.512Z,8.68
2019-06-26T02:34:02.953Z,10.90
2019-06-26T02:36:32.505Z,10.70
2019-06-26T02:39:01.943Z,10.28
2019-06-26T02:41:32.611Z,9.63
2019-06-26T02:44:02.063Z,9.00
2019-06-26T02:46:31.568Z,10.53
2019-06-26T02:49:01.060Z,11.35
2019-06-26T02:51:30.656Z,10.75
2019-06-26T02:54:00.026Z,9.98
2019-06-26T02:56:29.573Z,7.87
2019-06-26T02:58:58.999Z,10.18
2019-06-26T03:01:28.430Z,10.13
2019-06-26T03:03:57.892Z,9.75
2019-06-26T03:06:27.425Z,10.00
2019-06-26T03:08:56.790Z,10.30
2019-06-26T03:11:26.224Z,9.03
2019-06-26T03:13:55.604Z,9.88
2019-06-26T03:16:25.029Z,9.18
2019-06-26T03:21:29.889Z,8.78
2019-06-26T03:23:59.322Z,10.43
2019-06-26T03:26:28.762Z,10.88
2019-06-26T03:28:58.161Z,10.10
2019-06-26T03:31:27.661Z,10.25
2019-06-26T03:33:57.083Z,9.70
2019-06-26T03:36:26.377Z,9.75
2019-06-26T03:38:55.902Z,10.35
2019-06-26T03:41:25.299Z,8.95
2019-06-26T03:43:54.849Z,10.98
2019-06-26T03:46:24.213Z,10.43
2019-06-26T03:48:53.713Z,9.63
2019-06-26T03:51:23.036Z,10.32
2019-06-26T03:53:52.513Z,10.08
2019-06-26T03:56:22.000Z,10.72
2019-06-26T03:58:51.365Z,10.05
2019-06-26T04:03:57.531Z,8.65
2019-06-26T04:06:27.172Z,10.70
2019-06-26T04:08:56.645Z,9.90
2019-06-26T04:11:26.011Z,10.00
2019-06-26T04:13:55.368Z,10.30
2019-06-26T04:16:30.442Z,10.08
2019-06-26T04:18:59.887Z,8.68
2019-06-26T04:21:29.481Z,8.58
2019-06-26T04:23:59.086Z,10.43
2019-06-26T04:29:03.260Z,9.38
2019-06-26T04:31:32.898Z,8.33
2019-06-26T04:34:03.490Z,8.13
2019-06-26T04:36:33.060Z,6.75
2019-06-26T04:41:37.262Z,8.10
2019-06-26T04:44:06.941Z,10.72
2019-06-26T04:46:36.369Z,7.78
2019-06-26T04:49:05.761Z,6.78
2019-06-26T04:51:35.116Z,8.85
2019-06-26T04:54:04.546Z,6.78
2019-06-26T04:59:08.997Z,7.70
2019-06-26T05:01:38.672Z,8.03
2019-06-26T05:04:08.175Z,6.90
2019-06-26T05:06:37.526Z,7.05
2019-06-26T05:09:07.427Z,6.50
2019-06-26T05:11:36.817Z,7.42
2019-06-26T05:14:06.214Z,5.95
2019-06-26T05:16:36.700Z,5.53
2019-06-26T05:19:06.076Z,6.65
2019-06-26T05:21:35.435Z,6.10
2019-06-26T05:26:39.658Z,6.17
2019-06-26T05:29:09.111Z,6.00
2019-06-26T05:34:27.027Z,5.92
2019-06-26T05:36:56.497Z,5.17
2019-06-26T05:39:25.945Z,6.12
2019-06-26T05:41:55.512Z,5.90
2019-06-26T05:44:24.979Z,5.30
2019-06-26T05:46:54.550Z,5.00
2019-06-26T05:49:24.004Z,5.30
2019-06-26T05:51:53.605Z,5.47
2019-06-26T05:54:23.094Z,5.55
2019-06-26T05:56:52.527Z,6.05
2019-06-26T05:59:21.881Z,5.87
2019-06-26T06:01:51.409Z,4.87
2019-06-26T06:04:20.767Z,5.53
2019-06-26T06:06:50.263Z,5.92
2019-06-26T06:09:19.689Z,5.40
2019-06-26T06:11:49.054Z,5.47
2019-06-26T06:14:18.658Z,5.03
2019-06-26T06:16:48.207Z,5.05
2019-06-26T06:19:17.859Z,5.87
2019-06-26T06:21:47.221Z,4.83
2019-06-26T06:24:16.544Z,5.75
2019-06-26T06:26:45.982Z,5.55
2019-06-26T06:29:15.337Z,5.72
2019-06-26T06:31:45.735Z,6.37
2019-06-26T06:34:15.128Z,5.83
2019-06-26T06:36:44.596Z,6.58
2019-06-26T06:41:48.999Z,5.53
2019-06-26T06:44:18.428Z,6.67
2019-06-26T06:47:02.812Z,5.50
2019-06-26T06:49:18.902Z,7.30
2019-06-26T06:54:23.805Z,4.97
2019-06-26T06:56:53.232Z,5.75
2019-06-26T06:59:22.553Z,5.40
2019-06-26T07:01:52.053Z,5.20
2019-06-26T07:04:21.729Z,4.90
2019-06-26T07:06:51.246Z,5.67
2019-06-26T07:09:20.805Z,5.40
2019-06-26T07:11:50.200Z,5.22
2019-06-26T07:16:54.113Z,5.22
2019-06-26T07:19:23.642Z,5.97
2019-06-26T07:21:53.043Z,6.03
2019-06-26T07:24:22.566Z,4.97
2019-06-26T07:26:52.044Z,5.53
2019-06-26T07:29:21.516Z,4.90
2019-06-26T07:34:26.605Z,5.53
2019-06-26T07:36:55.962Z,5.92
2019-06-26T07:39:25.428Z,6.10
2019-06-26T07:41:55.578Z,5.65
2019-06-26T07:44:25.046Z,6.00
2019-06-26T07:46:54.542Z,5.28
2019-06-26T07:51:58.760Z,6.03
2019-06-26T07:54:28.118Z,5.33
2019-06-26T07:56:57.510Z,6.25
2019-06-26T07:59:26.900Z,5.95
2019-06-26T08:01:56.447Z,6.17
2019-06-26T08:04:25.800Z,5.90
2019-06-26T08:06:55.173Z,5.53
2019-06-26T08:09:24.714Z,6.15
2019-06-26T08:11:54.094Z,5.58
2019-06-26T08:14:23.519Z,5.70
2019-06-26T08:16:53.065Z,5.90
2019-06-26T08:21:57.197Z,6.65
2019-06-26T08:24:26.725Z,6.95
2019-06-26T08:26:56.103Z,6.72
2019-06-26T08:29:25.452Z,6.80
2019-06-26T08:31:54.856Z,5.53
2019-06-26T08:34:24.236Z,6.37
2019-06-26T08:36:53.676Z,5.80
2019-06-26T08:39:23.097Z,6.05
2019-06-26T08:41:52.479Z,5.08
2019-06-26T08:44:22.005Z,5.37
2019-06-26T08:46:51.429Z,5.55
2019-06-26T08:49:25.444Z,5.37
2019-06-26T08:51:52.022Z,5.00
2019-06-26T08:54:21.453Z,4.90
2019-06-26T08:56:50.898Z,5.20
2019-06-26T09:01:55.369Z,5.85
2019-06-26T09:04:24.732Z,5.70
2019-06-26T09:06:54.113Z,5.33
2019-06-26T09:09:23.638Z,5.03
2019-06-26T09:11:53.057Z,5.37
2019-06-26T09:14:28.450Z,5.37
2019-06-26T09:16:57.739Z,5.92
2019-06-26T09:19:27.061Z,5.33
2019-06-26T09:21:56.447Z,5.37
2019-06-26T09:24:25.801Z,5.60
2019-06-26T09:26:55.350Z,5.15
2019-06-26T09:29:24.772Z,4.80
2019-06-26T09:31:55.213Z,4.80
2019-06-26T09:34:24.557Z,5.60
2019-06-26T09:36:53.841Z,5.72
2019-06-26T09:39:23.133Z,5.67
2019-06-26T09:44:27.093Z,5.28
2019-06-26T09:46:56.693Z,6.25
2019-06-26T09:49:26.079Z,5.72
2019-06-26T09:51:55.496Z,6.12
2019-06-26T09:56:59.614Z,7.10
2019-06-26T09:59:29.078Z,6.67
2019-06-26T10:01:58.589Z,6.30
2019-06-26T10:04:27.952Z,5.58
2019-06-26T10:09:38.643Z,5.92
2019-06-26T10:12:08.137Z,6.05
2019-06-26T10:14:47.406Z,6.15
2019-06-26T10:17:08.658Z,6.85
2019-06-26T10:19:38.051Z,4.70
2019-06-26T10:22:07.555Z,4.90
2019-06-26T10:24:36.966Z,5.10
2019-06-26T10:27:06.454Z,5.80
2019-06-26T10:29:48.418Z,6.33
2019-06-26T10:32:17.977Z,6.75
2019-06-26T10:34:47.347Z,6.08
2019-06-26T10:37:16.871Z,4.55
2019-06-26T10:39:46.299Z,5.60
2019-06-26T10:42:15.752Z,4.90
2019-06-26T10:44:45.146Z,6.20
2019-06-26T10:47:18.354Z,6.20
2019-06-26T10:49:47.709Z,6.42
2019-06-26T10:52:18.137Z,5.22
2019-06-26T10:54:47.665Z,5.78
2019-06-26T10:57:17.378Z,6.58
2019-06-26T10:59:46.775Z,6.37
2019-06-26T11:02:17.291Z,6.42
2019-06-26T11:04:46.709Z,6.47
2019-06-26T11:07:16.195Z,6.12
2019-06-26T11:09:45.608Z,6.35
2019-06-26T11:12:15.010Z,6.47
2019-06-26T11:14:45.478Z,6.53
2019-06-26T11:17:14.993Z,6.33
2019-06-26T11:19:44.680Z,6.10
2019-06-26T11:22:14.042Z,6.28
2019-06-26T11:24:43.385Z,5.92
2019-06-26T11:29:47.488Z,6.12
2019-06-26T11:32:16.900Z,6.15
2019-06-26T11:34:46.378Z,6.30
2019-06-26T11:37:15.734Z,5.87
2019-06-26T11:39:45.418Z,6.62
2019-06-26T11:42:15.058Z,6.85
2019-06-26T11:47:19.581Z,6.25
2019-06-26T11:49:59.453Z,6.03
2019-06-26T11:52:20.215Z,6.60
2019-06-26T11:55:01.751Z,6.53
2019-06-26T11:57:20.880Z,5.70
2019-06-26T11:59:50.374Z,6.45
2019-06-26T12:04:54.950Z,6.62
2019-06-26T12:07:24.443Z,7.15
2019-06-26T12:09:54.007Z,7.60
2019-06-26T12:12:23.313Z,8.98
2019-06-26T12:14:52.735Z,7.83
2019-06-26T12:17:22.150Z,7.70
2019-06-26T12:19:51.560Z,7.37
2019-06-26T12:22:21.025Z,8.33
2019-06-26T12:24:50.532Z,7.62
2019-06-26T12:27:20.127Z,7.65
2019-06-26T12:29:49.621Z,6.58
2019-06-26T12:32:19.036Z,7.53
2019-06-26T12:34:48.400Z,7.55
2019-06-26T12:37:18.007Z,7.50
2019-06-26T12:39:47.679Z,7.47
2019-06-26T12:42:17.051Z,7.03
2019-06-26T12:44:46.601Z,8.08
2019-06-26T12:47:16.848Z,7.47
2019-06-26T12:49:46.249Z,7.05
2019-06-26T12:52:17.092Z,6.83
2019-06-26T12:54:48.572Z,8.18
2019-06-26T12:57:18.132Z,7.47
2019-06-26T12:59:57.284Z,7.87
2019-06-26T13:04:54.333Z,7.22
2019-06-26T13:07:23.700Z,8.55
2019-06-26T13:09:53.071Z,6.00
2019-06-26T13:12:22.740Z,7.97
2019-06-26T13:14:52.115Z,7.60
2019-06-26T13:17:21.656Z,8.15
2019-06-26T13:22:31.799Z,8.00
2019-06-26T13:25:01.377Z,7.72
2019-06-26T13:27:32.016Z,7.50
2019-06-26T13:30:01.482Z,7.10
2019-06-26T13:32:31.013Z,8.40
2019-06-26T13:35:00.583Z,7.95
2019-06-26T13:37:29.971Z,6.83
2019-06-26T13:39:59.622Z,7.67
2019-06-26T13:42:29.314Z,7.85
2019-06-26T13:44:59.013Z,7.20
2019-06-26T13:47:28.533Z,8.18
2019-06-26T13:49:57.875Z,8.35
2019-06-26T13:52:27.501Z,7.45
2019-06-26T13:54:58.098Z,8.30
2019-06-26T13:57:27.627Z,7.42
2019-06-26T13:59:57.292Z,7.00
2019-06-26T14:02:26.740Z,7.55
2019-06-26T14:04:56.108Z,7.10
2019-06-26T14:07:25.643Z,7.90
2019-06-26T14:09:55.127Z,6.17
2019-06-26T14:12:24.727Z,6.97
2019-06-26T14:14:57.777Z,7.55
2019-06-26T14:17:25.205Z,6.95
2019-06-26T14:19:54.603Z,7.28
2019-06-26T14:22:24.182Z,7.15
2019-06-26T14:24:54.347Z,7.78
2019-06-26T14:27:23.876Z,6.90
2019-06-26T14:29:53.230Z,7.95
2019-06-26T14:32:22.652Z,6.08
2019-06-26T14:34:52.355Z,6.65
2019-06-26T14:37:21.703Z,7.70
2019-06-26T14:39:51.086Z,7.40
2019-06-26T14:42:20.835Z,7.12
2019-06-26T14:44:52.672Z,7.15
2019-06-26T14:49:55.607Z,6.72
2019-06-26T14:52:25.206Z,7.05
2019-06-26T14:54:54.833Z,7.12
2019-06-26T14:57:26.088Z,6.87
2019-06-26T14:59:55.532Z,7.28
2019-06-26T15:02:24.933Z,5.47
2019-06-26T15:04:54.453Z,7.53
2019-06-26T15:07:24.163Z,6.25
2019-06-26T15:09:53.743Z,6.92
2019-06-26T15:12:23.170Z,6.22
2019-06-26T15:14:52.565Z,6.35
2019-06-26T15:17:22.060Z,6.62
2019-06-26T15:19:51.448Z,7.35
2019-06-26T15:22:20.772Z,6.37
2019-06-26T15:24:50.344Z,6.15
2019-06-26T15:27:19.869Z,6.45
2019-06-26T15:29:49.373Z,6.72
2019-06-26T15:32:18.898Z,5.97
2019-06-26T15:34:48.564Z,6.60
2019-06-26T15:37:18.453Z,7.28
2019-06-26T15:39:48.227Z,7.10
2019-06-26T15:42:18.060Z,6.75
2019-06-26T15:44:47.437Z,6.65
2019-06-26T15:47:18.545Z,7.00
2019-06-26T15:49:48.095Z,4.95
2019-06-26T15:52:19.150Z,6.62
2019-06-26T15:54:48.643Z,6.87
2019-06-26T15:57:18.728Z,6.60
2019-06-26T15:59:48.324Z,6.15
2019-06-26T16:02:19.643Z,6.00
2019-06-26T16:04:49.645Z,5.50
2019-06-26T16:07:19.045Z,5.67
2019-06-26T16:09:48.649Z,5.75
2019-06-26T16:12:18.033Z,6.25
2019-06-26T16:14:48.400Z,6.12
2019-06-26T16:17:28.696Z,5.72
2019-06-26T16:19:58.150Z,6.40
2019-06-26T16:22:32.100Z,6.30
2019-06-26T16:24:58.605Z,6.67
2019-06-26T16:27:28.439Z,6.80
2019-06-26T16:29:57.803Z,6.67
2019-06-26T16:32:27.970Z,6.85
2019-06-26T16:37:33.995Z,6.58
2019-06-26T16:40:06.648Z,5.87
2019-06-26T16:42:36.244Z,7.08
2019-06-26T16:45:06.161Z,6.15
2019-06-26T16:47:36.630Z,6.33
2019-06-26T16:50:06.828Z,6.25
2019-06-26T16:52:48.656Z,6.62
2019-06-26T16:55:07.453Z,5.85
2019-06-26T16:57:37.180Z,6.42
2019-06-26T17:00:10.369Z,6.50
2019-06-26T17:02:41.024Z,6.60
2019-06-26T17:05:10.539Z,6.10
2019-06-26T17:07:39.987Z,6.17
2019-06-26T17:10:09.521Z,6.42
2019-06-26T17:12:39.953Z,6.58
2019-06-26T17:17:44.569Z,6.37
2019-06-26T17:20:13.965Z,6.45
2019-06-26T17:22:43.582Z,6.10
2019-06-26T17:25:12.981Z,6.97
2019-06-26T17:27:42.535Z,6.65
2019-06-26T17:30:12.090Z,7.35
2019-06-26T17:32:49.157Z,7.22
2019-06-26T17:35:18.534Z,6.37
2019-06-26T17:37:48.055Z,6.55
2019-06-26T17:40:17.649Z,7.00
2019-06-26T17:42:47.170Z,7.15
2019-06-26T17:45:20.545Z,6.90
2019-06-26T17:47:49.980Z,7.10
2019-06-26T17:50:19.397Z,6.95
2019-06-26T17:52:49.049Z,6.35
2019-06-26T17:55:18.496Z,6.97
2019-06-26T18:00:26.437Z,6.53
2019-06-26T18:02:55.898Z,6.80
2019-06-26T18:05:25.457Z,7.00
2019-06-26T18:07:54.775Z,5.67
2019-06-26T18:10:24.201Z,6.83
2019-06-26T18:12:53.572Z,6.25
2019-06-26T18:18:03.550Z,6.90
2019-06-26T18:20:32.980Z,5.78
2019-06-26T18:23:07.193Z,6.05
2019-06-26T18:25:33.557Z,4.87
2019-06-26T18:28:02.981Z,4.75
2019-06-26T18:30:38.375Z,6.25
2019-06-26T18:33:07.801Z,6.58
2019-06-26T18:35:37.283Z,5.03
2019-06-26T18:38:06.756Z,5.65
2019-06-26T18:40:36.250Z,5.33
2019-06-26T18:43:14.232Z,5.17
2019-06-26T18:45:42.401Z,5.80
2019-06-26T18:48:11.868Z,5.70
2019-06-26T18:50:41.220Z,5.30
2019-06-26T18:55:45.386Z,5.15
2019-06-26T18:58:14.736Z,5.28
2019-06-26T19:00:44.090Z,4.53
2019-06-26T19:03:13.541Z,5.35
2019-06-26T19:05:43.109Z,4.92
2019-06-26T19:13:35.897Z,5.37
2019-06-26T19:16:05.266Z,6.05
2019-06-26T19:18:34.616Z,5.17
2019-06-26T19:21:04.016Z,6.03
2019-06-26T19:23:33.583Z,6.58
2019-06-26T19:26:02.985Z,6.55
2019-06-26T19:28:32.400Z,6.83
2019-06-26T19:31:01.838Z,7.40
2019-06-26T19:33:31.158Z,7.08
2019-06-26T19:38:35.374Z,7.12
2019-06-26T19:41:08.362Z,7.40
2019-06-26T19:43:36.209Z,7.22
2019-06-26T19:46:05.638Z,8.73
2019-06-26T19:51:10.114Z,7.40
2019-06-26T19:53:39.474Z,7.72
2019-06-26T19:56:08.872Z,9.03
2019-06-26T19:58:38.471Z,8.40
2019-06-26T20:01:08.867Z,8.00
2019-06-26T20:03:38.286Z,9.13
2019-06-26T20:06:07.776Z,9.15
2019-06-26T20:08:51.879Z,9.28
2019-06-26T20:11:08.145Z,11.00
2019-06-26T20:13:37.752Z,8.95
2019-06-26T20:16:07.118Z,8.78
2019-06-26T20:18:36.586Z,6.67
2019-06-26T20:21:05.940Z,8.98
2019-06-26T20:23:35.502Z,8.68
2019-06-26T20:26:04.981Z,10.58
2019-06-26T20:28:34.372Z,9.70
2019-06-26T20:31:04.003Z,9.85
2019-06-26T20:33:33.513Z,9.63
2019-06-26T20:36:08.319Z,10.48
2019-06-26T20:38:37.750Z,9.10
2019-06-26T20:41:07.300Z,8.60
2019-06-26T20:43:36.905Z,7.62
2019-06-26T20:46:06.334Z,8.93
2019-06-26T20:48:35.949Z,8.15
2019-06-26T20:53:40.612Z,7.70
2019-06-26T20:56:10.289Z,9.73
2019-06-26T20:58:39.712Z,7.35
2019-06-26T21:01:09.244Z,8.90
2019-06-26T21:03:38.608Z,7.12
2019-06-26T21:06:08.145Z,8.40
2019-06-26T21:08:37.634Z,8.25
2019-06-26T21:11:07.169Z,9.73
2019-06-26T21:13:36.598Z,7.20
2019-06-26T21:16:05.923Z,8.53
2019-06-26T21:18:35.333Z,8.48
2019-06-26T21:21:04.723Z,8.20
2019-06-26T21:23:34.229Z,10.20
2019-06-26T21:28:45.343Z,8.00
2019-06-26T21:31:14.706Z,7.90
2019-06-26T21:33:44.081Z,7.30
2019-06-26T21:36:13.407Z,8.35
2019-06-26T21:38:42.965Z,7.80
2019-06-26T21:41:12.505Z,7.35
2019-06-26T21:43:41.858Z,9.23
2019-06-26T21:46:11.251Z,8.13
2019-06-26T21:48:44.733Z,8.08
2019-06-26T21:51:14.010Z,9.55
2019-06-26T21:53:43.475Z,10.15
2019-06-26T21:56:30.944Z,10.13
2019-06-26T21:59:17.920Z,8.15
2019-06-26T22:02:05.174Z,9.50
2019-06-26T22:04:54.241Z,10.00
2019-06-26T22:10:16.171Z,9.63
2019-06-26T22:12:45.722Z,9.43
2019-06-26T22:15:15.278Z,9.95
2019-06-26T22:17:44.707Z,10.23
2019-06-26T22:20:17.865Z,10.70
2019-06-26T22:22:47.309Z,11.38
2019-06-26T22:25:17.878Z,12.43
2019-06-26T22:27:47.339Z,11.40
2019-06-26T22:30:16.906Z,9.23
2019-06-26T22:32:46.402Z,8.00
2019-06-26T22:35:16.192Z,10.08
2019-06-26T22:37:45.553Z,10.23
2019-06-26T22:40:14.959Z,10.32
2019-06-26T22:42:44.666Z,10.48
2019-06-26T22:45:14.083Z,10.18
2019-06-26T22:47:43.489Z,10.28
2019-06-26T22:50:13.857Z,10.18
2019-06-26T22:52:43.261Z,12.05
2019-06-26T22:55:13.914Z,11.53
2019-06-26T22:57:43.386Z,11.48
2019-06-26T23:00:14.801Z,11.57
2019-06-26T23:02:44.421Z,10.55
2019-06-26T23:05:13.811Z,11.63
2019-06-26T23:10:18.348Z,12.43
2019-06-26T23:12:47.682Z,11.18
2019-06-26T23:15:17.058Z,12.25
2019-06-26T23:17:47.616Z,10.23
2019-06-26T23:20:17.139Z,11.73
2019-06-26T23:22:46.899Z,13.30
2019-06-26T23:25:16.346Z,10.25
2019-06-26T23:27:45.923Z,10.58
2019-06-26T23:32:52.439Z,11.05
2019-06-26T23:35:21.813Z,10.32
2019-06-26T23:37:51.323Z,10.78
2019-06-26T23:40:20.861Z,12.07
2019-06-26T23:42:50.229Z,10.80
2019-06-26T23:45:19.668Z,8.18
2019-06-26T23:50:23.669Z,9.18
2019-06-26T23:52:53.941Z,9.93
2019-06-26T23:55:23.493Z,9.38
2019-06-26T23:57:58.985Z,10.50
